createdAt,value
2018-08-13T00:01:21.273Z,1.80
2018-08-13T00:03:49.179Z,1.83
2018-08-13T00:06:17.080Z,1.80
2018-08-13T00:08:44.997Z,1.53
2018-08-13T00:11:13.002Z,1.67
2018-08-13T00:13:40.958Z,1.80
2018-08-13T00:16:08.846Z,1.73
2018-08-13T00:18:36.749Z,1.83
2018-08-13T00:21:04.849Z,1.90
2018-08-13T00:23:32.820Z,1.73
2018-08-13T00:26:01.034Z,1.80
2018-08-13T00:28:29.288Z,1.87
2018-08-13T00:30:57.313Z,1.60
2018-08-13T00:33:25.242Z,1.70
2018-08-13T00:35:53.083Z,1.90
2018-08-13T00:38:20.759Z,1.90
2018-08-13T00:40:48.683Z,1.90
2018-08-13T00:43:16.564Z,1.87
2018-08-13T00:45:44.533Z,2.10
2018-08-13T00:48:12.420Z,1.90
2018-08-13T00:50:40.298Z,1.90
2018-08-13T00:53:08.129Z,2.00
2018-08-13T00:55:36.053Z,1.70
2018-08-13T00:58:04.200Z,2.00
2018-08-13T01:00:32.236Z,2.00
2018-08-13T01:03:00.477Z,2.07
2018-08-13T01:05:28.940Z,1.77
2018-08-13T01:07:56.821Z,1.97
2018-08-13T01:10:24.740Z,1.83
2018-08-13T01:12:52.664Z,2.10
2018-08-13T01:15:20.757Z,1.97
2018-08-13T01:17:49.539Z,1.90
2018-08-13T01:20:18.533Z,1.90
2018-08-13T01:22:46.497Z,2.17
2018-08-13T01:25:15.944Z,2.00
2018-08-13T01:27:44.306Z,2.00
2018-08-13T01:30:13.546Z,2.20
2018-08-13T01:32:41.345Z,1.90
2018-08-13T01:35:09.269Z,1.90
2018-08-13T01:37:37.221Z,2.40
2018-08-13T01:40:06.682Z,2.20
2018-08-13T01:42:34.735Z,1.83
2018-08-13T01:45:02.756Z,2.27
2018-08-13T01:47:30.921Z,2.03
2018-08-13T01:49:59.291Z,1.90
2018-08-13T01:52:27.413Z,1.90
2018-08-13T01:54:55.393Z,2.13
2018-08-13T01:57:23.317Z,2.30
2018-08-13T01:59:51.233Z,2.20
2018-08-13T02:02:19.100Z,2.07
2018-08-13T02:04:49.457Z,2.00
2018-08-13T02:07:17.340Z,1.93
2018-08-13T02:09:45.235Z,2.70
2018-08-13T02:12:13.469Z,2.37
2018-08-13T02:14:41.692Z,2.50
2018-08-13T02:17:10.139Z,2.20
2018-08-13T02:19:38.050Z,2.40
2018-08-13T02:22:05.932Z,2.23
2018-08-13T02:24:33.998Z,2.30
2018-08-13T02:27:01.929Z,2.30
2018-08-13T02:29:30.014Z,2.17
2018-08-13T02:31:58.465Z,2.57
2018-08-13T02:34:26.959Z,2.10
2018-08-13T02:36:54.927Z,3.50
2018-08-13T02:39:22.754Z,2.60
2018-08-13T02:41:50.657Z,2.30
2018-08-13T02:44:18.457Z,2.30
2018-08-13T02:46:47.402Z,2.50
2018-08-13T02:49:15.343Z,2.30
2018-08-13T02:51:43.136Z,2.47
2018-08-13T02:54:10.946Z,2.33
2018-08-13T02:56:38.898Z,2.17
2018-08-13T02:59:06.933Z,2.30
2018-08-13T03:01:35.050Z,2.20
2018-08-13T03:04:02.961Z,2.30
2018-08-13T03:06:31.405Z,2.63
2018-08-13T03:08:59.562Z,2.23
2018-08-13T03:11:27.596Z,2.27
2018-08-13T03:13:55.481Z,2.30
2018-08-13T03:16:24.332Z,2.23
2018-08-13T03:18:52.267Z,2.20
2018-08-13T03:21:20.050Z,2.23
2018-08-13T03:23:48.052Z,2.00
2018-08-13T03:26:16.024Z,2.40
2018-08-13T03:28:43.946Z,2.57
2018-08-13T03:31:11.821Z,2.70
2018-08-13T03:33:39.789Z,2.40
2018-08-13T03:36:08.025Z,2.17
2018-08-13T03:38:36.025Z,2.10
2018-08-13T03:41:04.085Z,2.23
2018-08-13T03:43:32.182Z,2.07
2018-08-13T03:46:00.401Z,2.73
2018-08-13T03:48:28.687Z,2.17
2018-08-13T03:50:56.860Z,2.00
2018-08-13T03:53:24.681Z,2.30
2018-08-13T03:55:52.578Z,2.90
2018-08-13T03:58:20.612Z,2.33
2018-08-13T04:00:48.474Z,2.40
2018-08-13T04:03:16.255Z,2.30
2018-08-13T04:05:44.273Z,2.60
2018-08-13T04:08:12.160Z,2.67
2018-08-13T04:10:40.054Z,2.60
2018-08-13T04:13:08.186Z,2.80
2018-08-13T04:15:36.131Z,2.53
2018-08-13T04:18:04.816Z,2.30
2018-08-13T04:20:32.957Z,2.27
2018-08-13T04:23:01.226Z,2.53
2018-08-13T04:25:30.067Z,2.50
2018-08-13T04:27:58.346Z,2.70
2018-08-13T04:30:26.461Z,2.37
2018-08-13T04:32:54.361Z,2.33
2018-08-13T04:35:22.185Z,2.17
2018-08-13T04:37:50.041Z,2.60
2018-08-13T04:40:18.393Z,2.87
2018-08-13T04:42:47.305Z,2.30
2018-08-13T04:45:15.394Z,2.40
2018-08-13T04:48:00.127Z,2.60
2018-08-13T04:50:28.467Z,2.30
2018-08-13T04:52:56.442Z,2.50
2018-08-13T04:55:24.262Z,2.33
2018-08-13T04:57:52.265Z,2.17
2018-08-13T05:00:20.163Z,2.20
2018-08-13T05:02:47.951Z,2.60
2018-08-13T05:05:15.878Z,2.40
2018-08-13T05:07:44.032Z,1.90
2018-08-13T05:10:11.936Z,2.50
2018-08-13T05:12:40.541Z,2.30
2018-08-13T05:15:09.701Z,2.20
2018-08-13T05:17:37.863Z,2.00
2018-08-13T05:20:08.722Z,1.90
2018-08-13T05:22:36.709Z,2.10
2018-08-13T05:25:05.966Z,2.20
2018-08-13T05:27:34.402Z,2.00
2018-08-13T05:30:02.977Z,2.20
2018-08-13T05:32:31.307Z,2.20
2018-08-13T05:34:59.931Z,2.03
2018-08-13T05:37:28.468Z,2.00
2018-08-13T05:39:59.088Z,2.27
2018-08-13T05:42:27.532Z,2.07
2018-08-13T05:44:55.379Z,2.10
2018-08-13T05:47:23.361Z,1.93
2018-08-13T05:49:51.256Z,1.97
2018-08-13T05:52:19.125Z,2.20
2018-08-13T05:54:47.064Z,3.30
2018-08-13T05:57:14.928Z,3.13
2018-08-13T05:59:42.861Z,2.30
2018-08-13T06:02:10.793Z,1.80
2018-08-13T06:04:38.571Z,1.80
2018-08-13T06:07:06.745Z,2.20
2018-08-13T06:09:35.084Z,2.63
2018-08-13T06:12:03.028Z,2.10
2018-08-13T06:14:31.143Z,1.90
2018-08-13T06:16:59.392Z,2.03
2018-08-13T06:19:27.707Z,1.83
2018-08-13T06:21:55.687Z,2.00
2018-08-13T06:24:23.666Z,1.50
2018-08-13T06:26:51.457Z,1.73
2018-08-13T06:29:19.333Z,1.90
2018-08-13T06:31:47.289Z,1.90
2018-08-13T06:34:25.624Z,2.20
2018-08-13T06:36:53.366Z,1.80
2018-08-13T06:39:21.207Z,2.10
2018-08-13T06:41:49.062Z,2.20
2018-08-13T06:44:16.910Z,2.83
2018-08-13T06:46:44.721Z,1.90
2018-08-13T06:49:12.532Z,2.13
2018-08-13T06:51:40.324Z,2.07
2018-08-13T06:54:08.200Z,2.17
2018-08-13T06:56:36.282Z,2.50
2018-08-13T06:59:04.316Z,2.07
2018-08-13T07:01:32.331Z,2.00
2018-08-13T07:04:00.468Z,2.00
2018-08-13T07:06:28.667Z,2.23
2018-08-13T07:08:56.480Z,1.90
2018-08-13T07:11:24.269Z,2.00
2018-08-13T07:13:52.080Z,2.00
2018-08-13T07:16:19.930Z,1.90
2018-08-13T07:18:47.731Z,2.20
2018-08-13T07:21:15.712Z,2.10
2018-08-13T07:23:43.547Z,2.00
2018-08-13T07:26:11.332Z,1.90
2018-08-13T07:28:39.280Z,2.10
2018-08-13T07:31:07.325Z,2.00
2018-08-13T07:33:35.185Z,1.90
2018-08-13T07:36:03.117Z,1.93
2018-08-13T07:38:31.047Z,2.20
2018-08-13T07:40:59.122Z,2.20
2018-08-13T07:43:28.054Z,2.13
2018-08-13T07:45:55.939Z,2.40
2018-08-13T07:48:23.747Z,2.40
2018-08-13T07:50:51.633Z,2.20
2018-08-13T07:53:19.547Z,2.20
2018-08-13T07:55:47.287Z,2.17
2018-08-13T07:58:15.097Z,2.23
2018-08-13T08:00:42.973Z,2.00
2018-08-13T08:03:10.797Z,1.93
2018-08-13T08:05:38.665Z,1.87
2018-08-13T08:08:06.654Z,2.10
2018-08-13T08:10:34.818Z,1.90
2018-08-13T08:13:02.919Z,2.00
2018-08-13T08:15:30.839Z,2.30
2018-08-13T08:17:59.429Z,1.80
2018-08-13T08:20:27.426Z,2.00
2018-08-13T08:22:55.291Z,2.07
2018-08-13T08:25:23.239Z,2.17
2018-08-13T08:27:51.161Z,1.90
2018-08-13T08:30:19.009Z,2.30
2018-08-13T08:32:46.960Z,1.90
2018-08-13T08:35:16.059Z,2.30
2018-08-13T08:37:44.109Z,1.83
2018-08-13T08:40:17.594Z,2.23
2018-08-13T08:42:45.801Z,2.20
2018-08-13T08:45:19.277Z,1.90
2018-08-13T08:47:47.377Z,1.87
2018-08-13T08:50:15.721Z,1.97
2018-08-13T08:52:44.575Z,2.50
2018-08-13T08:55:12.517Z,1.80
2018-08-13T08:57:40.386Z,1.70
2018-08-13T09:00:11.553Z,1.70
2018-08-13T09:02:39.341Z,1.70
2018-08-13T09:05:07.730Z,1.90
2018-08-13T09:07:35.767Z,2.10
2018-08-13T09:10:04.486Z,1.80
2018-08-13T09:12:32.463Z,1.93
2018-08-13T09:15:00.686Z,1.80
2018-08-13T09:17:39.825Z,1.00
2018-08-13T09:20:18.954Z,1.20
2018-08-13T09:22:58.266Z,1.23
2018-08-13T09:25:37.623Z,1.30
2018-08-13T09:28:16.746Z,1.20
2018-08-13T09:30:56.157Z,1.30
2018-08-13T09:33:35.297Z,1.30
2018-08-13T09:36:03.568Z,1.20
2018-08-13T09:38:32.409Z,1.50
2018-08-13T09:41:01.054Z,1.60
2018-08-13T09:43:29.627Z,1.43
2018-08-13T09:45:57.940Z,1.40
2018-08-13T09:48:25.930Z,1.43
2018-08-13T09:50:53.894Z,1.33
2018-08-13T09:53:21.774Z,1.20
2018-08-13T09:55:49.861Z,1.40
2018-08-13T09:58:17.756Z,1.20
2018-08-13T10:00:51.417Z,1.03
2018-08-13T10:03:19.285Z,1.10
2018-08-13T10:05:47.244Z,1.40
2018-08-13T10:08:15.259Z,1.30
2018-08-13T10:10:43.245Z,0.90
2018-08-13T10:13:11.245Z,1.10
2018-08-13T10:15:39.353Z,0.90
2018-08-13T10:18:07.577Z,0.83
2018-08-13T10:20:35.821Z,1.13
2018-08-13T10:23:04.370Z,0.87
2018-08-13T10:25:32.859Z,0.90
2018-08-13T10:30:52.824Z,0.70
2018-08-13T10:33:20.620Z,0.70
2018-08-13T10:35:48.245Z,0.90
2018-08-13T10:38:15.949Z,0.97
2018-08-13T10:40:44.530Z,0.90
2018-08-13T10:43:12.148Z,1.10
2018-08-13T10:45:39.716Z,1.60
2018-08-13T10:48:07.601Z,1.20
2018-08-13T10:50:35.839Z,1.30
2018-08-13T10:53:04.459Z,1.30
2018-08-13T10:55:34.068Z,1.33
2018-08-13T10:58:02.883Z,1.40
2018-08-13T11:00:31.780Z,1.23
2018-08-13T11:03:00.847Z,1.00
2018-08-13T11:05:31.399Z,1.00
2018-08-13T11:08:14.580Z,1.10
2018-08-13T11:10:42.626Z,1.33
2018-08-13T11:13:10.628Z,1.43
2018-08-13T11:15:38.538Z,1.30
2018-08-13T11:18:06.911Z,1.60
2018-08-13T11:20:35.267Z,1.57
2018-08-13T11:23:08.167Z,1.40
2018-08-13T11:25:36.226Z,1.37
2018-08-13T11:28:05.616Z,1.30
2018-08-13T11:30:33.658Z,1.30
2018-08-13T11:33:01.801Z,1.27
2018-08-13T11:35:30.169Z,1.40
2018-08-13T11:37:59.926Z,1.47
2018-08-13T11:40:28.630Z,1.50
2018-08-13T11:42:57.690Z,1.50
2018-08-13T11:45:26.236Z,1.47
2018-08-13T11:47:54.320Z,1.50
2018-08-13T11:50:22.429Z,1.43
2018-08-13T11:52:51.797Z,1.40
2018-08-13T11:55:20.375Z,1.30
2018-08-13T11:57:49.452Z,1.40
2018-08-13T12:00:17.651Z,1.40
2018-08-13T12:02:45.886Z,1.50
2018-08-13T12:05:15.736Z,1.40
2018-08-13T12:07:44.394Z,1.30
2018-08-13T12:10:13.354Z,1.50
2018-08-13T12:12:42.029Z,1.57
2018-08-13T12:15:11.168Z,1.23
2018-08-13T12:17:39.376Z,1.30
2018-08-13T12:20:13.606Z,1.40
2018-08-13T12:22:41.937Z,1.40
2018-08-13T12:25:10.310Z,1.43
2018-08-13T12:27:38.455Z,1.33
2018-08-13T12:30:08.436Z,1.30
2018-08-13T12:32:36.475Z,1.50
2018-08-13T12:35:05.337Z,1.40
2018-08-13T12:37:33.452Z,1.53
2018-08-13T12:40:01.531Z,1.50
2018-08-13T12:42:30.006Z,1.50
2018-08-13T12:44:58.139Z,1.60
2018-08-13T12:47:26.552Z,1.70
2018-08-13T12:49:54.786Z,2.10
2018-08-13T12:52:22.760Z,2.00
2018-08-13T12:54:50.769Z,2.10
2018-08-13T12:57:22.618Z,2.10
2018-08-13T12:59:50.563Z,1.90
2018-08-13T13:02:18.595Z,1.83
2018-08-13T13:04:46.518Z,1.97
2018-08-13T13:07:14.538Z,2.10
2018-08-13T13:09:42.426Z,2.37
2018-08-13T13:12:10.449Z,2.20
2018-08-13T13:14:38.457Z,1.90
2018-08-13T13:17:06.518Z,2.10
2018-08-13T13:19:34.469Z,2.10
2018-08-13T13:22:02.715Z,1.90
2018-08-13T13:24:31.033Z,2.07
2018-08-13T13:26:59.618Z,2.20
2018-08-13T13:29:27.905Z,1.90
2018-08-13T13:31:55.746Z,2.10
2018-08-13T13:34:23.760Z,2.00
2018-08-13T13:36:51.569Z,2.20
2018-08-13T13:39:19.416Z,2.13
2018-08-13T13:41:47.301Z,2.47
2018-08-13T13:44:15.150Z,2.13
2018-08-13T13:46:42.923Z,2.00
2018-08-13T13:49:10.740Z,1.90
2018-08-13T13:51:38.688Z,2.07
2018-08-13T13:54:06.933Z,2.10
2018-08-13T13:56:34.902Z,2.63
2018-08-13T13:59:03.740Z,2.20
2018-08-13T14:01:32.243Z,2.30
2018-08-13T14:04:01.472Z,2.10
2018-08-13T14:06:30.724Z,2.13
2018-08-13T14:08:59.984Z,1.97
2018-08-13T14:11:28.667Z,2.00
2018-08-13T14:13:56.751Z,1.90
2018-08-13T14:16:24.631Z,2.20
2018-08-13T14:18:53.026Z,2.07
2018-08-13T14:21:20.909Z,3.20
2018-08-13T14:23:48.830Z,2.00
2018-08-13T14:26:16.816Z,2.00
2018-08-13T14:28:44.778Z,1.73
2018-08-13T14:31:12.757Z,1.97
2018-08-13T14:33:40.967Z,1.83
2018-08-13T14:36:08.961Z,1.90
2018-08-13T14:38:36.826Z,1.97
2018-08-13T14:41:05.005Z,2.33
2018-08-13T14:43:33.244Z,1.90
2018-08-13T14:46:01.365Z,1.90
2018-08-13T14:48:30.117Z,1.70
2018-08-13T14:50:59.258Z,2.33
2018-08-13T14:53:27.543Z,1.73
2018-08-13T14:55:55.727Z,1.80
2018-08-13T14:58:23.750Z,1.67
2018-08-13T15:00:51.931Z,2.00
2018-08-13T15:03:20.204Z,1.97
2018-08-13T15:05:48.164Z,1.93
2018-08-13T15:08:16.173Z,1.80
2018-08-13T15:10:44.125Z,1.93
2018-08-13T15:13:12.102Z,1.97
2018-08-13T15:15:39.927Z,1.87
2018-08-13T15:18:09.523Z,1.70
2018-08-13T15:20:37.478Z,1.63
2018-08-13T15:23:05.606Z,1.60
2018-08-13T15:25:33.821Z,1.70
2018-08-13T15:28:05.896Z,1.80
2018-08-13T15:30:34.442Z,1.80
2018-08-13T15:33:02.591Z,2.00
2018-08-13T15:35:30.556Z,1.87
2018-08-13T15:37:59.332Z,1.73
2018-08-13T15:40:27.371Z,1.70
2018-08-13T15:42:55.619Z,1.93
2018-08-13T15:45:24.046Z,1.70
2018-08-13T15:47:52.092Z,1.60
2018-08-13T15:50:21.266Z,1.67
2018-08-13T15:52:49.621Z,1.50
2018-08-13T15:55:17.587Z,1.53
2018-08-13T15:57:45.879Z,1.40
2018-08-13T16:00:16.588Z,1.40
2018-08-13T16:02:44.415Z,1.60
2018-08-13T16:05:12.253Z,1.60
2018-08-13T16:07:40.274Z,1.70
2018-08-13T16:10:13.641Z,1.50
2018-08-13T16:12:41.981Z,1.47
2018-08-13T16:15:09.922Z,1.40
2018-08-13T16:17:38.668Z,1.40
2018-08-13T16:20:09.736Z,1.30
2018-08-13T16:22:37.977Z,1.33
2018-08-13T16:25:06.557Z,1.20
2018-08-13T16:27:34.707Z,1.30
2018-08-13T16:30:02.915Z,1.53
2018-08-13T16:32:30.963Z,1.33
2018-08-13T16:35:02.634Z,1.47
2018-08-13T16:37:30.957Z,1.30
2018-08-13T16:39:59.037Z,1.50
2018-08-13T16:42:26.990Z,1.40
2018-08-13T16:44:54.849Z,1.53
2018-08-13T16:47:22.749Z,1.70
2018-08-13T16:49:50.462Z,1.50
2018-08-13T16:52:18.310Z,1.97
2018-08-13T16:54:46.065Z,1.50
2018-08-13T16:57:14.230Z,1.63
2018-08-13T16:59:42.204Z,1.60
2018-08-13T17:02:09.992Z,1.47
2018-08-13T17:04:37.975Z,1.50
2018-08-13T17:07:05.960Z,1.80
2018-08-13T17:09:34.256Z,1.90
2018-08-13T17:12:02.781Z,2.00
2018-08-13T17:14:31.701Z,1.90
2018-08-13T17:17:00.532Z,1.90
2018-08-13T17:19:29.474Z,2.23
2018-08-13T17:21:57.779Z,2.33
2018-08-13T17:24:25.895Z,2.20
2018-08-13T17:26:54.063Z,2.10
2018-08-13T17:29:22.052Z,2.00
2018-08-13T17:31:50.687Z,2.10
2018-08-13T17:34:18.768Z,2.07
2018-08-13T17:36:46.912Z,2.10
2018-08-13T17:39:15.076Z,1.90
2018-08-13T17:41:43.222Z,2.40
2018-08-13T17:44:11.539Z,2.30
2018-08-13T17:46:39.868Z,2.20
2018-08-13T17:49:08.602Z,2.10
2018-08-13T17:51:36.913Z,2.30
2018-08-13T17:54:06.222Z,2.40
2018-08-13T17:56:34.484Z,2.17
2018-08-13T17:59:02.789Z,2.40
2018-08-13T18:01:31.125Z,2.20
2018-08-13T18:03:59.782Z,2.83
2018-08-13T18:06:35.479Z,2.23
2018-08-13T18:09:05.085Z,2.20
2018-08-13T18:11:33.727Z,2.07
2018-08-13T18:14:02.333Z,2.53
2018-08-13T18:16:31.508Z,2.97
2018-08-13T18:19:00.608Z,2.30
2018-08-13T18:21:29.817Z,2.20
2018-08-13T18:23:58.597Z,2.30
2018-08-13T18:26:35.666Z,2.20
2018-08-13T18:29:04.668Z,2.70
2018-08-13T18:31:32.834Z,2.40
2018-08-13T18:34:01.443Z,2.30
2018-08-13T18:36:30.167Z,2.00
2018-08-13T18:38:58.935Z,2.30
2018-08-13T18:41:27.448Z,2.47
2018-08-13T18:43:55.771Z,2.70
2018-08-13T18:46:23.710Z,2.30
2018-08-13T18:48:51.713Z,2.47
2018-08-13T18:51:19.670Z,2.40
2018-08-13T18:53:47.728Z,2.27
2018-08-13T18:56:15.712Z,2.60
2018-08-13T18:58:43.616Z,2.37
2018-08-13T19:01:11.612Z,2.30
2018-08-13T19:03:39.341Z,2.20
2018-08-13T19:06:07.300Z,2.30
2018-08-13T19:08:35.268Z,2.40
2018-08-13T19:11:03.898Z,2.50
2018-08-13T19:13:32.071Z,2.50
2018-08-13T19:16:01.046Z,2.70
2018-08-13T19:18:29.834Z,2.60
2018-08-13T19:20:58.611Z,2.93
2018-08-13T19:23:26.930Z,2.83
2018-08-13T19:25:54.960Z,2.20
2018-08-13T19:28:22.822Z,2.30
2018-08-13T19:30:50.847Z,2.47
2018-08-13T19:33:25.182Z,2.40
2018-08-13T19:35:53.085Z,2.67
2018-08-13T19:38:21.049Z,2.50
2018-08-13T19:40:49.383Z,2.53
2018-08-13T19:43:17.270Z,2.70
2018-08-13T19:45:45.289Z,2.50
2018-08-13T19:48:13.240Z,2.40
2018-08-13T19:50:41.438Z,2.50
2018-08-13T19:53:09.331Z,2.40
2018-08-13T19:55:37.370Z,2.67
2018-08-13T19:58:05.368Z,2.70
2018-08-13T20:00:33.310Z,2.67
2018-08-13T20:03:01.749Z,2.60
2018-08-13T20:05:30.914Z,2.63
2018-08-13T20:08:00.107Z,2.73
2018-08-13T20:10:28.676Z,2.50
2018-08-13T20:12:56.631Z,2.53
2018-08-13T20:15:24.580Z,2.50
2018-08-13T20:17:52.574Z,2.60
2018-08-13T20:20:21.039Z,2.63
2018-08-13T20:22:49.563Z,2.20
2018-08-13T20:25:18.390Z,2.43
2018-08-13T20:27:46.922Z,2.30
2018-08-13T20:30:16.827Z,3.10
2018-08-13T20:32:46.339Z,2.63
2018-08-13T20:35:14.470Z,2.50
2018-08-13T20:37:42.283Z,2.70
2018-08-13T20:40:12.250Z,2.53
2018-08-13T20:42:40.820Z,2.40
2018-08-13T20:45:11.331Z,2.53
2018-08-13T20:47:39.424Z,2.30
2018-08-13T20:50:09.764Z,2.23
2018-08-13T20:52:37.833Z,2.10
2018-08-13T20:55:08.998Z,2.37
2018-08-13T20:57:37.057Z,2.37
2018-08-13T21:00:07.372Z,2.53
2018-08-13T21:02:35.346Z,2.70
2018-08-13T21:05:03.533Z,3.00
2018-08-13T21:07:32.114Z,2.80
2018-08-13T21:10:01.846Z,2.50
2018-08-13T21:12:30.913Z,2.37
2018-08-13T21:15:00.155Z,3.17
2018-08-13T21:17:35.504Z,2.80
2018-08-13T21:20:03.657Z,2.60
2018-08-13T21:22:32.410Z,3.87
2018-08-13T21:25:01.207Z,2.80
2018-08-13T21:27:30.620Z,3.20
2018-08-13T21:30:00.240Z,2.90
2018-08-13T21:32:30.404Z,3.30
2018-08-13T21:34:59.599Z,2.50
2018-08-13T21:37:28.116Z,2.70
2018-08-13T21:39:56.332Z,2.57
2018-08-13T21:42:24.125Z,2.80
2018-08-13T21:44:52.346Z,2.50
2018-08-13T21:47:20.402Z,2.80
2018-08-13T21:49:48.200Z,3.40
2018-08-13T21:52:16.207Z,2.67
2018-08-13T21:54:44.378Z,3.03
2018-08-13T21:57:12.336Z,2.70
2018-08-13T21:59:40.208Z,2.67
2018-08-13T22:02:13.302Z,2.60
2018-08-13T22:04:42.342Z,2.73
2018-08-13T22:07:10.681Z,2.10
2018-08-13T22:09:38.770Z,3.70
2018-08-13T22:12:13.132Z,2.60
2018-08-13T22:14:42.050Z,2.50
2018-08-13T22:17:11.028Z,2.10
2018-08-13T22:19:39.006Z,2.20
2018-08-13T22:22:07.045Z,2.20
2018-08-13T22:24:46.433Z,2.20
2018-08-13T22:27:14.500Z,2.10
2018-08-13T22:29:42.342Z,2.20
2018-08-13T22:32:10.257Z,1.90
2018-08-13T22:34:38.637Z,1.97
2018-08-13T22:37:06.536Z,1.83
2018-08-13T22:39:34.394Z,2.00
2018-08-13T22:42:02.371Z,2.10
2018-08-13T22:44:30.283Z,2.10
2018-08-13T22:46:58.208Z,2.10
2018-08-13T22:49:26.074Z,2.33
2018-08-13T22:51:54.155Z,1.90
2018-08-13T22:54:22.049Z,2.30
2018-08-13T22:56:49.880Z,2.37
2018-08-13T22:59:17.726Z,2.30
2018-08-13T23:01:45.618Z,2.37
2018-08-13T23:04:13.417Z,2.40
2018-08-13T23:06:41.158Z,2.20
2018-08-13T23:09:10.196Z,2.40
2018-08-13T23:11:38.043Z,2.40
2018-08-13T23:14:05.915Z,2.70
2018-08-13T23:16:34.058Z,2.43
2018-08-13T23:19:01.870Z,2.23
2018-08-13T23:21:29.968Z,2.30
2018-08-13T23:23:58.193Z,2.30
2018-08-13T23:26:26.003Z,2.30
2018-08-13T23:28:53.905Z,2.23
2018-08-13T23:31:21.770Z,2.53
2018-08-13T23:33:49.478Z,2.50
2018-08-13T23:36:17.254Z,2.43
2018-08-13T23:38:45.131Z,2.37
2018-08-13T23:41:13.130Z,2.33
2018-08-13T23:43:40.954Z,2.50
2018-08-13T23:46:08.762Z,2.50
2018-08-13T23:48:36.609Z,2.47
2018-08-13T23:51:04.354Z,1.90
2018-08-13T23:53:32.404Z,2.13
2018-08-13T23:56:00.449Z,1.90
2018-08-13T23:58:28.415Z,2.13
